createdAt,value
2018-01-31T01:53:40.884Z,10.32
2018-01-31T01:56:08.368Z,10.52
2018-01-31T01:58:35.782Z,14.48
2018-01-31T02:01:02.458Z,12.37
2018-01-31T02:03:29.889Z,12.85
2018-01-31T02:05:56.617Z,13.48
2018-01-31T02:08:23.314Z,13.73
2018-01-31T02:10:49.974Z,14.77
2018-01-31T02:13:16.696Z,13.13
2018-01-31T02:15:44.112Z,10.20
2018-01-31T02:18:10.791Z,12.52
2018-01-31T02:20:37.497Z,14.98
2018-01-31T02:23:04.158Z,9.88
2018-01-31T02:25:30.851Z,8.52
2018-01-31T02:27:57.537Z,10.40
2018-01-31T02:30:24.199Z,9.73
2018-01-31T02:32:58.619Z,7.20
2018-01-31T02:35:26.059Z,8.73
2018-01-31T02:37:52.775Z,6.50
2018-01-31T02:40:19.476Z,8.50
2018-01-31T02:42:46.876Z,7.10
2018-01-31T02:45:13.541Z,9.98
2018-01-31T02:47:47.133Z,6.68
2018-01-31T02:50:13.804Z,6.95
2018-01-31T02:52:40.458Z,6.70
2018-01-31T02:55:07.917Z,7.03
2018-01-31T02:57:35.330Z,8.30
2018-01-31T03:00:02.036Z,6.55
2018-01-31T03:02:29.454Z,6.18
2018-01-31T03:04:56.569Z,6.93
2018-01-31T03:07:23.299Z,6.95
2018-01-31T03:09:50.006Z,9.57
2018-01-31T03:12:16.678Z,9.13
2018-01-31T03:14:43.366Z,6.57
2018-01-31T03:17:10.123Z,7.85
2018-01-31T03:19:36.794Z,6.60
2018-01-31T03:22:04.218Z,6.28
2018-01-31T03:24:30.911Z,7.10
2018-01-31T03:26:58.318Z,5.70
2018-01-31T03:29:24.994Z,5.68
2018-01-31T03:31:51.705Z,6.68
2018-01-31T03:34:18.373Z,6.20
2018-01-31T03:36:45.070Z,9.63
2018-01-31T03:39:11.778Z,5.97
2018-01-31T03:41:39.186Z,5.00
2018-01-31T03:44:05.877Z,7.45
2018-01-31T03:46:33.332Z,6.45
2018-01-31T03:49:00.742Z,6.03
2018-01-31T03:51:27.417Z,7.35
2018-01-31T03:53:54.101Z,7.72
2018-01-31T03:56:20.789Z,6.50
2018-01-31T03:58:47.452Z,5.95
2018-01-31T04:01:14.277Z,8.10
2018-01-31T04:03:41.099Z,7.05
2018-01-31T04:06:07.857Z,6.05
2018-01-31T04:08:34.538Z,8.18
2018-01-31T04:11:01.224Z,7.67
2018-01-31T04:13:27.927Z,6.83
2018-01-31T04:15:54.604Z,7.65
2018-01-31T04:18:21.317Z,7.07
2018-01-31T04:20:48.026Z,6.60
2018-01-31T04:23:14.689Z,6.90
2018-01-31T04:25:41.394Z,7.10
2018-01-31T04:28:08.101Z,5.57
2018-01-31T04:30:35.538Z,5.97
2018-01-31T04:33:02.264Z,6.45
2018-01-31T04:35:28.982Z,7.82
2018-01-31T04:37:55.642Z,6.25
2018-01-31T04:40:22.325Z,5.60
2018-01-31T04:42:49.772Z,8.27
2018-01-31T04:45:16.455Z,6.00
2018-01-31T04:47:43.901Z,7.47
2018-01-31T04:50:11.331Z,5.50
2018-01-31T04:52:37.994Z,6.63
2018-01-31T04:55:05.492Z,6.75
2018-01-31T04:57:32.200Z,8.23
2018-01-31T05:00:00.191Z,9.17
2018-01-31T05:02:27.622Z,7.33
2018-01-31T05:04:54.304Z,7.30
2018-01-31T05:07:21.031Z,7.63
2018-01-31T05:09:48.431Z,7.10
2018-01-31T05:12:15.106Z,8.60
2018-01-31T05:14:41.857Z,8.33
2018-01-31T05:17:08.702Z,9.00
2018-01-31T05:19:35.410Z,7.40
2018-01-31T05:22:02.139Z,14.65
2018-01-31T05:24:28.793Z,9.27
2018-01-31T05:26:55.476Z,8.50
2018-01-31T05:29:22.935Z,8.17
2018-01-31T05:31:49.646Z,12.35
2018-01-31T05:34:16.358Z,11.97
2018-01-31T05:36:43.157Z,12.30
2018-01-31T05:39:09.885Z,9.75
2018-01-31T05:41:36.603Z,11.20
2018-01-31T05:44:03.248Z,15.48
2018-01-31T05:46:29.950Z,9.77
2018-01-31T05:48:57.371Z,11.73
2018-01-31T05:51:24.069Z,12.07
2018-01-31T05:53:51.500Z,12.80
2018-01-31T05:56:18.169Z,11.27
2018-01-31T05:58:45.639Z,10.73
2018-01-31T06:01:12.416Z,14.05
2018-01-31T06:03:39.074Z,9.95
2018-01-31T06:06:05.778Z,11.80
2018-01-31T06:08:32.499Z,13.75
2018-01-31T06:10:59.941Z,11.17
2018-01-31T06:13:26.654Z,11.25
2018-01-31T06:15:53.401Z,10.02
2018-01-31T06:18:20.101Z,10.23
2018-01-31T06:20:47.538Z,11.40
2018-01-31T06:23:14.258Z,10.10
2018-01-31T06:25:40.957Z,9.47
2018-01-31T06:28:07.688Z,9.37
2018-01-31T06:30:35.143Z,8.20
2018-01-31T06:33:02.615Z,8.03
2018-01-31T06:35:29.308Z,11.30
2018-01-31T06:37:55.983Z,9.33
2018-01-31T06:40:23.417Z,8.88
2018-01-31T06:42:50.143Z,10.95
2018-01-31T06:45:16.813Z,9.30
2018-01-31T06:47:43.510Z,11.10
2018-01-31T06:50:10.202Z,8.80
2018-01-31T06:52:37.015Z,8.50
2018-01-31T06:55:03.798Z,8.10
2018-01-31T06:57:30.474Z,8.97
2018-01-31T06:59:57.178Z,7.77
2018-01-31T07:02:23.861Z,10.10
2018-01-31T07:04:51.081Z,7.72
2018-01-31T07:07:17.777Z,9.80
2018-01-31T07:09:44.496Z,8.77
2018-01-31T07:12:12.097Z,8.90
2018-01-31T07:14:38.764Z,8.50
2018-01-31T07:17:05.481Z,6.97
2018-01-31T07:19:32.266Z,8.67
2018-01-31T07:21:58.938Z,8.53
2018-01-31T07:24:25.638Z,9.10
2018-01-31T07:26:52.356Z,6.90
2018-01-31T07:29:19.036Z,6.83
2018-01-31T07:31:45.732Z,9.45
2018-01-31T07:34:12.442Z,9.03
2018-01-31T07:36:39.866Z,11.67
2018-01-31T07:39:06.578Z,8.43
2018-01-31T07:41:33.294Z,9.45
2018-01-31T07:44:00.740Z,6.63
2018-01-31T07:46:27.415Z,12.80
2018-01-31T07:48:54.104Z,7.80
2018-01-31T07:51:20.877Z,10.07
2018-01-31T07:53:48.322Z,9.10
2018-01-31T07:56:15.011Z,9.80
2018-01-31T07:58:41.673Z,7.87
2018-01-31T08:01:08.453Z,8.10
2018-01-31T08:03:35.217Z,7.30
2018-01-31T08:06:02.692Z,6.73
2018-01-31T08:08:29.431Z,8.40
2018-01-31T08:10:56.858Z,11.10
2018-01-31T08:13:23.574Z,10.20
2018-01-31T08:15:50.270Z,13.13
2018-01-31T08:18:17.699Z,10.00
2018-01-31T08:20:44.452Z,7.30
2018-01-31T08:23:11.164Z,9.20
2018-01-31T08:25:37.834Z,7.43
2018-01-31T08:28:04.516Z,7.10
2018-01-31T08:30:31.946Z,8.73
2018-01-31T08:32:58.671Z,8.57
2018-01-31T08:35:25.382Z,7.67
2018-01-31T08:37:52.067Z,10.93
2018-01-31T08:40:18.754Z,7.80
2018-01-31T08:42:46.350Z,9.07
2018-01-31T08:45:13.079Z,10.70
2018-01-31T08:47:41.849Z,9.80
2018-01-31T08:50:09.291Z,11.00
2018-01-31T08:52:36.166Z,7.30
2018-01-31T08:55:02.951Z,8.23
2018-01-31T08:57:29.627Z,6.57
2018-01-31T08:59:56.349Z,5.83
2018-01-31T09:02:23.032Z,8.50
2018-01-31T09:04:56.691Z,6.50
2018-01-31T09:07:23.543Z,7.83
2018-01-31T09:09:50.376Z,7.13
2018-01-31T09:12:17.053Z,8.00
2018-01-31T09:14:44.794Z,7.80
2018-01-31T09:17:11.461Z,7.13
2018-01-31T09:19:38.238Z,7.80
2018-01-31T09:22:04.919Z,7.60
2018-01-31T09:24:31.605Z,11.73
2018-01-31T09:26:59.057Z,10.70
2018-01-31T09:29:25.817Z,7.40
2018-01-31T09:31:53.275Z,7.07
2018-01-31T09:34:20.734Z,8.93
2018-01-31T09:36:48.200Z,10.73
2018-01-31T09:39:14.925Z,9.83
2018-01-31T09:41:42.361Z,5.80
2018-01-31T09:44:09.167Z,10.70
2018-01-31T09:46:35.878Z,8.40
2018-01-31T09:49:03.422Z,8.63
2018-01-31T09:51:30.197Z,5.37
2018-01-31T09:53:57.659Z,7.33
2018-01-31T09:56:25.148Z,8.73
2018-01-31T09:58:51.826Z,10.70
2018-01-31T10:01:18.613Z,9.33
2018-01-31T10:03:45.304Z,16.00
2018-01-31T10:06:12.757Z,8.10
2018-01-31T10:08:40.203Z,6.53
2018-01-31T10:11:06.952Z,11.83
2018-01-31T10:13:33.750Z,5.47
2018-01-31T10:16:00.394Z,5.00
2018-01-31T10:18:28.068Z,6.20
2018-01-31T10:20:55.497Z,5.77
2018-01-31T10:23:22.142Z,11.77
2018-01-31T10:25:48.850Z,6.30
2018-01-31T10:28:15.600Z,5.60
2018-01-31T10:30:42.272Z,9.20
2018-01-31T10:33:09.030Z,10.63
2018-01-31T10:35:35.750Z,10.70
2018-01-31T10:38:02.440Z,12.00
2018-01-31T10:40:29.946Z,12.50
2018-01-31T10:42:56.594Z,10.93
2018-01-31T10:45:23.394Z,10.43
2018-01-31T10:47:50.789Z,10.50
2018-01-31T10:50:17.497Z,13.47
2018-01-31T10:52:44.955Z,15.47
2018-01-31T10:57:39.428Z,11.40
2018-01-31T11:00:06.194Z,12.50
2018-01-31T11:02:33.833Z,10.70
2018-01-31T11:05:00.543Z,10.80
2018-01-31T11:07:27.215Z,16.40
2018-01-31T11:09:53.929Z,9.43
2018-01-31T11:12:20.639Z,12.50
2018-01-31T11:14:48.061Z,9.87
2018-01-31T11:17:14.804Z,8.27
2018-01-31T11:19:41.520Z,13.90
2018-01-31T11:22:08.262Z,11.00
2018-01-31T11:24:34.967Z,9.57
2018-01-31T11:27:01.709Z,7.60
2018-01-31T11:29:28.384Z,7.47
2018-01-31T11:31:55.198Z,10.70
2018-01-31T11:34:21.869Z,7.93
2018-01-31T11:36:48.618Z,8.20
2018-01-31T11:39:15.436Z,10.10
2018-01-31T11:41:43.083Z,17.17
2018-01-31T11:44:09.897Z,8.57
2018-01-31T11:46:36.688Z,8.10
2018-01-31T11:49:03.513Z,10.50
2018-01-31T11:51:30.245Z,8.13
2018-01-31T11:53:56.970Z,7.77
2018-01-31T11:56:23.734Z,8.60
2018-01-31T11:58:50.426Z,8.37
2018-01-31T12:01:17.892Z,8.50
2018-01-31T12:03:45.334Z,10.40
2018-01-31T12:06:13.658Z,8.23
2018-01-31T12:08:40.452Z,9.17
2018-01-31T12:11:07.262Z,8.67
2018-01-31T12:27:38.814Z,14.00
2018-01-31T12:30:23.842Z,11.93
2018-01-31T12:33:08.972Z,14.37
2018-01-31T12:35:53.922Z,10.00
2018-01-31T12:38:39.618Z,11.73
2018-01-31T12:41:05.918Z,11.27
2018-01-31T12:43:32.209Z,11.33
2018-01-31T12:46:17.370Z,18.13
2018-01-31T12:49:01.263Z,13.10
2018-01-31T12:51:54.813Z,11.23
2018-01-31T13:08:13.022Z,11.20
2018-01-31T13:10:58.841Z,9.40
2018-01-31T13:13:43.848Z,9.50
2018-01-31T13:16:28.845Z,9.80
2018-01-31T13:19:13.880Z,9.60
2018-01-31T13:21:58.857Z,12.57
2018-01-31T13:24:43.781Z,11.40
2018-01-31T13:27:29.413Z,11.67
2018-01-31T13:43:53.701Z,14.10
2018-01-31T13:46:38.802Z,13.33
2018-01-31T13:49:23.838Z,12.93
2018-01-31T13:52:09.053Z,15.13
2018-01-31T13:54:54.127Z,11.03
2018-01-31T14:11:15.926Z,12.80
2018-01-31T14:14:00.982Z,16.27
2018-01-31T14:16:46.825Z,13.00
2018-01-31T14:19:31.952Z,12.60
2018-01-31T14:22:18.074Z,14.40
2018-01-31T14:25:01.947Z,15.40
2018-01-31T14:27:46.908Z,14.10
2018-01-31T14:30:31.941Z,9.83
2018-01-31T14:33:17.683Z,12.77
2018-01-31T14:36:02.734Z,12.80
2018-01-31T14:38:29.021Z,14.50
2018-01-31T14:40:55.278Z,14.97
2018-01-31T14:43:22.319Z,14.00
2018-01-31T14:45:49.371Z,15.40
2018-01-31T14:48:15.651Z,18.20
2018-01-31T14:50:41.990Z,14.57
2018-01-31T14:53:08.366Z,14.63
2018-01-31T14:55:36.691Z,16.63
2018-01-31T14:58:02.962Z,14.93
2018-01-31T15:00:29.379Z,21.83
2018-01-31T15:02:55.645Z,16.97
2018-01-31T15:05:21.919Z,20.07
2018-01-31T15:07:48.187Z,18.40
2018-01-31T15:10:19.101Z,20.77
2018-01-31T15:12:50.510Z,18.47
2018-01-31T15:15:18.853Z,17.83
2018-01-31T15:17:45.331Z,20.47
2018-01-31T15:20:11.631Z,18.23
2018-01-31T15:22:37.934Z,17.97
2018-01-31T15:25:04.211Z,21.50
2018-01-31T15:27:30.586Z,21.00
2018-01-31T15:29:57.605Z,19.20
2018-01-31T15:32:23.889Z,20.73
2018-01-31T15:34:50.209Z,17.93
2018-01-31T15:37:17.616Z,16.30
2018-01-31T15:39:44.065Z,18.83
2018-01-31T15:42:14.374Z,20.40
2018-01-31T15:44:40.653Z,18.17
2018-01-31T15:47:07.680Z,22.48
2018-01-31T15:49:33.948Z,23.00
2018-01-31T15:52:02.017Z,22.20
2018-01-31T15:54:29.050Z,21.90
2018-01-31T15:56:55.374Z,15.87
2018-01-31T15:59:21.799Z,19.50
2018-01-31T16:01:48.111Z,20.30
2018-01-31T16:04:14.382Z,23.42
2018-01-31T16:06:40.674Z,16.85
2018-01-31T16:09:09.146Z,20.10
2018-01-31T16:11:35.441Z,23.52
2018-01-31T16:14:01.731Z,22.63
2018-01-31T16:16:29.554Z,18.00
2018-01-31T16:33:04.207Z,21.85
2018-01-31T16:35:34.933Z,24.73
2018-01-31T16:38:02.814Z,20.75
2018-01-31T16:40:35.727Z,27.45
2018-01-31T16:43:02.436Z,27.42
2018-01-31T16:45:29.229Z,21.95
2018-01-31T16:47:55.990Z,23.73
2018-01-31T16:50:22.853Z,26.25
2018-01-31T16:52:49.650Z,27.70
2018-01-31T16:55:18.490Z,28.10
2018-01-31T16:57:46.044Z,27.83
2018-01-31T17:00:15.940Z,30.52
2018-01-31T17:02:43.758Z,31.55
2018-01-31T17:05:10.719Z,29.27
2018-01-31T17:07:38.197Z,26.37
2018-01-31T17:10:05.665Z,23.67
2018-01-31T17:12:32.440Z,24.40
2018-01-31T17:14:59.143Z,31.35
2018-01-31T17:17:26.579Z,27.75
2018-01-31T17:19:53.274Z,35.47
2018-01-31T17:22:20.116Z,34.53
2018-01-31T17:24:46.811Z,37.90
2018-01-31T17:27:15.587Z,36.72
2018-01-31T17:29:44.440Z,35.58
2018-01-31T17:32:11.441Z,33.22
2018-01-31T17:34:38.142Z,40.05
2018-01-31T17:37:08.169Z,41.35
2018-01-31T17:39:34.849Z,35.60
2018-01-31T17:42:01.656Z,33.20
2018-01-31T17:44:29.449Z,32.85
2018-01-31T17:47:00.674Z,38.88
2018-01-31T17:49:27.378Z,38.35
2018-01-31T17:51:55.869Z,32.65
2018-01-31T17:54:24.441Z,36.92
2018-01-31T17:56:51.213Z,36.03
2018-01-31T17:59:23.060Z,34.22
2018-01-31T18:01:51.576Z,35.83
2018-01-31T18:04:19.374Z,40.60
2018-01-31T18:06:46.150Z,34.03
2018-01-31T18:09:12.908Z,43.10
2018-01-31T18:11:40.371Z,40.00
2018-01-31T18:14:07.165Z,33.67
2018-01-31T18:16:33.908Z,35.78
2018-01-31T18:19:00.634Z,33.72
2018-01-31T18:21:27.350Z,36.00
2018-01-31T18:23:54.782Z,38.45
2018-01-31T18:26:21.522Z,36.95
2018-01-31T18:28:48.259Z,38.95
2018-01-31T18:31:15.007Z,36.90
2018-01-31T18:33:41.762Z,41.90
2018-01-31T18:36:08.450Z,37.30
2018-01-31T18:38:35.119Z,38.22
2018-01-31T18:41:01.856Z,38.22
2018-01-31T18:43:28.566Z,39.10
2018-01-31T18:45:56.032Z,43.83
2018-01-31T18:48:22.738Z,49.30
2018-01-31T18:50:49.415Z,41.97
2018-01-31T18:53:16.874Z,41.83
2018-01-31T18:55:44.358Z,38.83
2018-01-31T18:58:11.037Z,40.17
2018-01-31T19:00:37.753Z,44.38
2018-01-31T19:03:11.626Z,38.53
2018-01-31T19:05:39.094Z,43.38
2018-01-31T19:08:06.537Z,45.20
2018-01-31T19:10:33.367Z,40.85
2018-01-31T19:13:00.183Z,43.87
2018-01-31T19:15:26.958Z,43.95
2018-01-31T19:17:53.663Z,43.75
2018-01-31T19:20:20.481Z,44.03
2018-01-31T19:22:47.235Z,42.03
2018-01-31T19:25:13.943Z,43.80
2018-01-31T19:27:40.753Z,43.65
2018-01-31T19:30:07.646Z,42.70
2018-01-31T19:32:34.435Z,45.55
2018-01-31T19:35:01.258Z,44.45
2018-01-31T19:37:28.723Z,53.35
2018-01-31T19:39:56.196Z,51.53
2018-01-31T19:42:23.091Z,54.78
2018-01-31T19:44:49.807Z,45.97
2018-01-31T19:47:16.550Z,46.58
2018-01-31T19:49:43.315Z,41.08
2018-01-31T19:52:10.038Z,44.67
2018-01-31T19:54:36.838Z,41.58
2018-01-31T19:57:04.325Z,43.45
2018-01-31T19:59:31.075Z,41.53
2018-01-31T20:01:57.894Z,48.42
2018-01-31T20:04:25.310Z,47.28
2018-01-31T20:06:52.055Z,48.60
2018-01-31T20:09:18.743Z,52.85
2018-01-31T20:11:46.167Z,45.47
2018-01-31T20:14:12.901Z,47.58
2018-01-31T20:16:39.633Z,47.25
2018-01-31T20:19:06.416Z,48.42
2018-01-31T20:21:33.120Z,45.70
2018-01-31T20:23:59.825Z,50.20
2018-01-31T20:26:26.546Z,41.35
2018-01-31T20:28:53.218Z,44.92
2018-01-31T20:31:20.818Z,53.72
2018-01-31T20:33:47.554Z,50.90
2018-01-31T20:36:14.283Z,50.90
2018-01-31T20:38:41.014Z,57.40
2018-01-31T20:41:08.440Z,52.00
2018-01-31T20:43:35.166Z,53.85
2018-01-31T20:46:01.901Z,63.22
2018-01-31T20:48:28.619Z,58.97
2018-01-31T20:50:55.454Z,51.70
2018-01-31T20:53:22.199Z,60.90
2018-01-31T20:55:48.917Z,49.58
2018-01-31T20:58:16.401Z,59.28
2018-01-31T21:00:43.938Z,59.60
2018-01-31T21:03:10.734Z,53.55
2018-01-31T21:05:44.444Z,60.92
2018-01-31T21:08:11.648Z,57.67
2018-01-31T21:10:38.431Z,57.17
2018-01-31T21:13:05.113Z,49.42
2018-01-31T21:15:32.621Z,54.30
2018-01-31T21:18:00.297Z,52.50
2018-01-31T21:20:27.042Z,60.78
2018-01-31T21:22:53.859Z,57.78
2018-01-31T21:25:21.685Z,71.80
2018-01-31T21:27:55.818Z,74.57
2018-01-31T21:30:22.609Z,75.95
2018-01-31T21:32:49.272Z,59.67
2018-01-31T21:35:16.275Z,59.72
2018-01-31T21:37:42.985Z,61.63
2018-01-31T21:40:09.712Z,53.80
2018-01-31T21:42:36.421Z,60.67
2018-01-31T21:45:03.955Z,68.18
2018-01-31T21:47:30.687Z,67.40
2018-01-31T21:49:58.154Z,71.50
2018-01-31T21:52:24.912Z,61.55
2018-01-31T21:54:51.731Z,55.30
2018-01-31T21:57:18.562Z,55.95
2018-01-31T21:59:45.363Z,51.28
2018-01-31T22:02:12.120Z,59.22
2018-01-31T22:04:39.604Z,63.03
2018-01-31T22:07:06.302Z,49.25
2018-01-31T22:09:32.993Z,66.47
2018-01-31T22:11:59.690Z,50.90
2018-01-31T22:14:26.410Z,58.10
2018-01-31T22:16:53.130Z,55.53
2018-01-31T22:19:19.845Z,63.28
2018-01-31T22:21:47.301Z,60.58
2018-01-31T22:24:14.791Z,53.10
2018-01-31T22:26:41.594Z,56.63
2018-01-31T22:29:08.306Z,55.92
2018-01-31T22:31:35.086Z,58.03
2018-01-31T22:34:01.779Z,56.45
2018-01-31T22:36:28.494Z,50.80
2018-01-31T22:38:55.922Z,45.40
2018-01-31T22:41:22.631Z,56.40
2018-01-31T22:43:49.335Z,49.40
2018-01-31T22:46:16.791Z,52.78
2018-01-31T22:48:44.253Z,56.58
2018-01-31T22:51:11.698Z,67.43
2018-01-31T22:53:38.394Z,73.30
2018-01-31T22:56:05.854Z,90.47
2018-01-31T22:58:32.514Z,56.40
2018-01-31T23:00:59.222Z,61.22
2018-01-31T23:03:26.851Z,59.38
2018-01-31T23:05:53.664Z,100.47
2018-01-31T23:08:20.554Z,68.62
2018-01-31T23:10:47.305Z,69.72
2018-01-31T23:13:17.972Z,75.40
2018-01-31T23:15:44.699Z,73.72
2018-01-31T23:18:18.314Z,64.50
2018-01-31T23:20:44.986Z,59.15
2018-01-31T23:23:11.719Z,71.72
2018-01-31T23:25:38.477Z,77.37
2018-01-31T23:28:05.188Z,68.30
2018-01-31T23:30:31.882Z,68.10
2018-01-31T23:32:59.200Z,72.20
2018-01-31T23:35:25.855Z,63.13
2018-01-31T23:37:52.680Z,72.28
2018-01-31T23:40:19.703Z,93.85
2018-01-31T23:42:47.235Z,67.20
2018-01-31T23:45:15.174Z,61.88
2018-01-31T23:47:41.864Z,69.28
2018-01-31T23:50:08.664Z,62.38
2018-01-31T23:52:35.311Z,51.72
2018-01-31T23:55:01.995Z,51.90
2018-01-31T23:57:28.692Z,59.17
2018-01-31T23:59:55.998Z,59.65
